Time;durP1;ratioP1;P1;durP2;ratioP2;P2;SDS_P1;SDS_P2;PMS_P1;PMS_P2;Temp;Humidity;BMP_temperature;BMP_pressure;BME280_temperature;BME280_humidity;BME280_pressure;Samples;Min_cycle;Max_cycle;Signal;HPM_P1;HPM_P2
2024/01/03 00:01:42;;;;;;;33.45;4.53;;;;;;;11.90;100.00;98986.25;5269703;28;20049;-74
2024/01/03 00:04:25;;;;;;;32.17;4.05;;;;;;;11.92;100.00;98994.91;5274706;28;20118;-75
2024/01/03 00:06:55;;;;;;;27.50;5.20;;;;;;;12.07;100.00;98983.81;5270442;28;20024;-75
2024/01/03 00:09:26;;;;;;;30.42;3.83;;;;;;;12.09;100.00;98992.47;5270323;28;20468;-74
2024/01/03 00:11:58;;;;;;;32.20;4.57;;;;;;;12.14;100.00;99002.56;5269088;28;20023;-75
2024/01/03 00:14:31;;;;;;;35.65;4.60;;;;;;;12.14;100.00;98983.75;5271023;28;20031;-75
2024/01/03 00:17:04;;;;;;;20.85;4.40;;;;;;;12.28;100.00;99009.47;5268447;28;20038;-75
2024/01/03 00:19:35;;;;;;;27.27;3.80;;;;;;;12.22;100.00;98996.91;5271704;27;20028;-75
2024/01/03 00:22:11;;;;;;;19.25;3.45;;;;;;;12.19;100.00;98994.66;5265269;28;20548;-75
2024/01/03 00:24:46;;;;;;;24.92;3.63;;;;;;;12.33;100.00;98998.84;5267528;28;20031;-77
2024/01/03 00:27:18;;;;;;;;;;;;;;;12.24;100.00;99010.94;5269902;28;20031;-74
2024/01/03 00:30:06;;;;;;;36.80;5.13;;;;;;;12.27;100.00;99015.88;5267493;28;19912;-75
2024/01/03 00:32:37;;;;;;;37.00;3.85;;;;;;;12.24;100.00;99019.00;5270058;28;20110;-75
2024/01/03 00:35:09;;;;;;;23.88;3.38;;;;;;;12.25;100.00;99022.50;5266087;28;20049;-75
2024/01/03 00:37:40;;;;;;;29.27;4.07;;;;;;;12.08;100.00;99019.56;5271329;28;20504;-75
2024/01/03 00:40:49;;;;;;;23.80;3.13;;;;;;;12.09;100.00;99016.66;5271297;28;20024;-75
2024/01/03 00:43:19;;;;;;;21.85;3.30;;;;;;;11.97;100.00;99025.69;5272444;28;20078;-75
2024/01/03 00:45:50;;;;;;;25.02;3.35;;;;;;;11.99;100.00;99021.72;5266454;28;20103;-75
2024/01/03 00:48:21;;;;;;;30.70;4.50;;;;;;;11.94;100.00;99016.16;5271581;28;20051;-75
2024/01/03 00:50:51;;;;;;;28.95;4.65;;;;;;;11.80;100.00;99011.94;5269614;28;20023;-75
2024/01/03 00:53:22;;;;;;;25.88;3.33;;;;;;;11.51;100.00;99024.94;5273358;28;20032;-74
2024/01/03 00:55:53;;;;;;;27.75;3.15;;;;;;;11.51;100.00;99022.25;5269248;28;20027;-74
2024/01/03 00:58:24;;;;;;;21.88;3.05;;;;;;;11.33;100.00;99016.78;5270710;28;20382;-75
2024/01/03 01:00:54;;;;;;;25.17;4.05;;;;;;;11.40;100.00;99012.22;5267659;28;20115;-74
2024/01/03 01:03:25;;;;;;;23.73;4.03;;;;;;;11.43;100.00;99021.69;5270060;28;20079;-74
2024/01/03 01:05:55;;;;;;;23.83;3.33;;;;;;;11.40;100.00;99025.63;5269101;28;20028;-75
2024/01/03 01:08:26;;;;;;;20.88;3.00;;;;;;;11.48;100.00;99020.00;5270632;28;20031;-73
2024/01/03 01:10:57;;;;;;;25.20;3.72;;;;;;;11.51;100.00;99033.00;5269151;28;20154;-75
2024/01/03 01:13:27;;;;;;;26.50;3.55;;;;;;;11.51;100.00;99029.50;5269518;28;20024;-74
2024/01/03 01:15:58;;;;;;;23.98;3.78;;;;;;;11.60;100.00;99034.41;5270328;28;20030;-74
2024/01/03 01:18:28;;;;;;;18.08;3.65;;;;;;;11.71;100.00;99030.19;5271312;28;20015;-75
2024/01/03 01:20:59;;;;;;;26.58;3.22;;;;;;;11.67;100.00;99029.78;5269520;28;20402;-74
2024/01/03 01:23:29;;;;;;;19.20;3.08;;;;;;;11.61;100.00;99032.53;5270112;28;20030;-74
2024/01/03 01:26:00;;;;;;;19.25;2.90;;;;;;;11.70;100.00;99044.66;5270333;28;20428;-75
2024/01/03 01:28:30;;;;;;;18.23;2.45;;;;;;;11.65;100.00;99049.88;5272016;28;20023;-75
2024/01/03 01:31:01;;;;;;;15.48;2.63;;;;;;;11.71;100.00;99064.28;5266311;28;20036;-75
2024/01/03 01:33:31;;;;;;;24.88;3.10;;;;;;;11.67;100.00;99055.81;5272122;28;20096;-74
2024/01/03 01:36:02;;;;;;;17.45;3.28;;;;;;;11.61;100.00;99049.47;5267567;28;20089;-75
2024/01/03 01:38:33;;;;;;;19.77;2.75;;;;;;;11.66;100.00;99054.19;5270616;28;20024;-75
2024/01/03 01:41:03;;;;;;;27.13;3.50;;;;;;;11.52;100.00;99061.50;5268355;28;20381;-75
2024/01/03 01:43:34;;;;;;;17.10;2.83;;;;;;;11.48;100.00;99056.78;5270067;28;20035;-74
2024/01/03 01:46:04;;;;;;;18.27;2.88;;;;;;;11.58;100.00;99057.13;5270013;28;20026;-74
2024/01/03 01:48:35;;;;;;;21.23;2.58;;;;;;;11.39;100.00;99065.06;5265271;28;20106;-75
2024/01/03 01:51:06;;;;;;;17.73;2.55;;;;;;;11.56;100.00;99062.72;5267129;28;20652;-75
2024/01/03 01:53:36;;;;;;;20.70;2.90;;;;;;;11.53;100.00;99068.50;5272111;28;20435;-74
2024/01/03 01:56:09;;;;;;;14.25;2.50;;;;;;;11.55;100.00;99066.44;5267700;28;20102;-74
2024/01/03 01:58:41;;;;;;;16.73;2.92;;;;;;;11.66;100.00;99067.63;5272670;28;20026;-74
2024/01/03 02:01:12;;;;;;;21.98;2.30;;;;;;;11.68;100.00;99069.03;5273668;28;20042;-75
2024/01/03 02:03:43;;;;;;;19.52;4.60;;;;;;;11.44;100.00;99056.38;5274150;28;20055;-74
2024/01/03 02:06:14;;;;;;;18.75;2.33;;;;;;;11.62;100.00;99059.16;5271997;28;20116;-74
2024/01/03 02:08:44;;;;;;;11.68;2.15;;;;;;;11.65;100.00;99082.09;5274751;28;20481;-74
2024/01/03 02:11:15;;;;;;;15.63;2.47;;;;;;;11.66;100.00;99076.50;5276565;28;20182;-74
2024/01/03 02:13:46;;;;;;;23.98;2.75;;;;;;;11.66;100.00;99073.81;5268799;28;20701;-74
2024/01/03 02:16:35;;;;;;;16.33;2.47;;;;;;;11.79;100.00;99082.81;5269074;28;20031;-75
2024/01/03 02:19:06;;;;;;;21.02;2.92;;;;;;;11.84;100.00;99085.69;5278632;28;20501;-74
2024/01/03 02:21:36;;;;;;;17.55;2.90;;;;;;;11.77;100.00;99090.28;5270125;27;20063;-74
2024/01/03 02:24:07;;;;;;;21.17;2.92;;;;;;;11.85;100.00;99090.88;5270414;28;20024;-74
2024/01/03 02:26:47;;;;;;;35.00;3.88;;;;;;;11.90;100.00;99090.22;5270173;28;20035;-74
2024/01/03 02:29:37;;;;;;;20.27;3.83;;;;;;;11.82;100.00;99082.41;5272490;28;20032;-74
2024/01/03 02:32:08;;;;;;;22.73;2.85;;;;;;;11.88;100.00;99090.44;5269210;28;20030;-74
2024/01/03 02:34:39;;;;;;;22.20;2.88;;;;;;;11.70;100.00;99086.78;5273235;28;20043;-74
2024/01/03 02:37:11;;;;;;;21.02;3.55;;;;;;;11.68;100.00;99087.84;5274118;28;20028;-74
2024/01/03 02:39:41;;;;;;;16.00;2.60;;;;;;;11.64;100.00;99094.66;5267854;28;20024;-74
2024/01/03 02:42:12;;;;;;;21.90;3.00;;;;;;;11.64;100.00;99086.63;5270552;28;20362;-75
2024/01/03 02:44:42;;;;;;;21.98;2.90;;;;;;;11.54;100.00;99096.19;5262776;27;20546;-75
2024/01/03 02:47:12;;;;;;;20.35;2.50;;;;;;;11.42;100.00;99098.72;5277608;28;20845;-75
2024/01/03 02:49:43;;;;;;;18.02;2.65;;;;;;;11.38;100.00;99092.13;5279198;28;20484;-75
2024/01/03 02:52:13;;;;;;;17.30;2.63;;;;;;;11.39;100.00;99104.53;5272528;27;20081;-75
2024/01/03 02:54:45;;;;;;;24.55;3.47;;;;;;;11.40;100.00;99096.28;5270683;28;20469;-75
2024/01/03 02:57:15;;;;;;;15.50;2.50;;;;;;;11.40;100.00;99109.69;5267793;28;20033;-75
2024/01/03 02:59:46;;;;;;;21.20;2.42;;;;;;;11.36;100.00;99104.97;5271530;28;20420;-75
2024/01/03 03:02:16;;;;;;;12.30;2.20;;;;;;;11.32;100.00;99109.09;5272793;28;20027;-75
2024/01/03 03:04:47;;;;;;;14.23;2.58;;;;;;;11.29;100.00;99107.66;5274179;28;20038;-75
2024/01/03 03:07:17;;;;;;;18.02;2.53;;;;;;;11.41;100.00;99118.56;5270550;28;20021;-75
2024/01/03 03:09:48;;;;;;;13.05;2.33;;;;;;;11.45;100.00;99114.44;5266688;27;20024;-75
2024/01/03 03:12:19;;;;;;;16.52;2.58;;;;;;;11.50;100.00;99113.78;5275831;28;20044;-75
2024/01/03 03:14:50;;;;;;;18.15;2.60;;;;;;;11.45;100.00;99121.66;5271356;28;20055;-75
2024/01/03 03:17:20;;;;;;;17.10;2.88;;;;;;;11.39;100.00;99091.09;5270475;28;20378;-75
2024/01/03 03:19:51;;;;;;;12.90;2.35;;;;;;;11.15;100.00;99127.56;5276927;28;20023;-75
2024/01/03 03:22:27;;;;;;;15.30;1.80;;;;;;;11.26;100.00;99120.69;5275082;28;20041;-75
2024/01/03 03:24:58;;;;;;;13.60;2.45;;;;;;;11.24;100.00;99117.38;5268519;28;20028;-75
2024/01/03 03:27:30;;;;;;;20.92;2.15;;;;;;;11.14;100.00;99107.94;5278350;28;20051;-74
2024/01/03 03:30:02;;;;;;;13.95;2.05;;;;;;;11.07;100.00;99125.91;5261613;28;20524;-75
2024/01/03 03:32:33;;;;;;;12.55;1.95;;;;;;;11.03;100.00;99119.31;5274978;28;20032;-75
2024/01/03 03:35:05;;;;;;;15.57;2.17;;;;;;;10.97;100.00;99127.41;5272119;28;20020;-75
2024/01/03 03:37:35;;;;;;;11.02;1.80;;;;;;;11.01;100.00;99117.91;5264895;28;20030;-75
2024/01/03 03:40:07;;;;;;;8.25;2.08;;;;;;;11.05;100.00;99114.59;5272803;28;20015;-75
2024/01/03 03:42:38;;;;;;;17.77;2.45;;;;;;;11.01;100.00;99121.41;5267799;27;20028;-75
2024/01/03 03:45:09;;;;;;;12.63;1.67;;;;;;;11.04;100.00;99112.91;5272529;28;20111;-75
2024/01/03 03:47:39;;;;;;;9.45;1.17;;;;;;;11.01;100.00;99117.91;5270174;28;20035;-75
2024/01/03 03:50:10;;;;;;;6.63;1.38;;;;;;;11.03;100.00;99122.00;5275525;28;20428;-75
2024/01/03 03:52:40;;;;;;;9.48;2.00;;;;;;;11.07;100.00;99109.81;5272176;28;20020;-75
2024/01/03 03:55:13;;;;;;;13.88;1.15;;;;;;;11.05;100.00;99109.22;5279932;28;20015;-75
2024/01/03 03:57:43;;;;;;;6.90;1.05;;;;;;;11.01;100.00;99117.91;5274754;28;20023;-75
2024/01/03 04:00:14;;;;;;;6.70;1.23;;;;;;;11.04;100.00;99123.66;5277102;28;20028;-75
2024/01/03 04:02:45;;;;;;;7.05;1.15;;;;;;;10.96;100.00;99115.84;5276974;28;20026;-75
2024/01/03 04:05:16;;;;;;;8.90;1.60;;;;;;;11.10;100.00;99116.63;5278477;28;20028;-75
2024/01/03 04:07:46;;;;;;;8.85;1.60;;;;;;;11.08;100.00;99111.47;5279140;28;20032;-75
2024/01/03 04:10:17;;;;;;;19.13;2.42;;;;;;;11.03;100.00;99122.00;5280876;28;20040;-75
2024/01/03 04:12:47;;;;;;;15.07;3.35;;;;;;;10.92;100.00;99108.41;5280374;28;20028;-75
2024/01/03 04:15:18;;;;;;;8.57;2.45;;;;;;;10.93;100.00;99116.25;5280099;27;20031;-75
2024/01/03 04:17:49;;;;;;;14.98;1.85;;;;;;;10.84;100.00;99112.16;5275182;28;20043;-75
2024/01/03 04:20:20;;;;;;;18.40;2.42;;;;;;;10.87;100.00;99119.78;5277051;28;20036;-75
2024/01/03 04:22:51;;;;;;;9.25;2.30;;;;;;;10.91;100.00;99121.00;5275939;27;20095;-75
2024/01/03 04:25:21;;;;;;;10.90;2.05;;;;;;;10.90;100.00;99116.69;5278877;28;20032;-75
2024/01/03 04:27:52;;;;;;;16.52;2.85;;;;;;;10.93;100.00;99126.97;5275271;28;20043;-75
2024/01/03 04:30:22;;;;;;;8.52;1.85;;;;;;;10.97;100.00;99127.41;5275459;28;20043;-75
2024/01/03 04:32:53;;;;;;;17.35;2.38;;;;;;;10.89;100.00;99121.25;5276247;28;20129;-75
2024/01/03 04:35:23;;;;;;;17.92;2.15;;;;;;;10.94;100.00;99131.31;5271598;28;20134;-76
2024/01/03 04:37:56;;;;;;;10.80;1.60;;;;;;;10.88;100.00;99132.16;5280900;28;20035;-76
2024/01/03 04:40:26;;;;;;;13.55;2.28;;;;;;;10.95;100.00;99138.34;5275704;28;20023;-75
2024/01/03 04:42:57;;;;;;;16.90;1.83;;;;;;;10.95;100.00;99122.25;5268177;28;20039;-76
2024/01/03 04:45:27;;;;;;;18.02;2.47;;;;;;;11.03;100.00;99126.53;5274505;28;20070;-76
2024/01/03 04:47:58;;;;;;;9.85;2.08;;;;;;;10.92;100.00;99109.25;5275591;28;20042;-76
2024/01/03 04:50:28;;;;;;;10.60;2.00;;;;;;;10.89;100.00;99117.69;5274508;28;20064;-75
2024/01/03 04:52:59;;;;;;;8.98;1.70;;;;;;;10.78;100.00;99115.66;5275434;28;20478;-76
2024/01/03 04:55:29;;;;;;;12.45;1.92;;;;;;;10.82;100.00;99124.94;5279492;28;20040;-76
2024/01/03 04:58:00;;;;;;;13.30;1.83;;;;;;;10.68;100.00;99123.31;5279745;28;20068;-77
2024/01/03 05:00:33;;;;;;;24.63;2.90;;;;;;;10.73;100.00;99102.88;5275353;27;21294;-77
2024/01/03 05:03:03;;;;;;;13.43;1.60;;;;;;;10.72;100.00;99103.94;5274665;28;20039;-78
2024/01/03 05:05:34;;;;;;;12.65;2.75;;;;;;;10.67;100.00;99105.59;5252803;28;20381;-78
2024/01/03 05:08:05;;;;;;;9.13;2.17;;;;;;;10.53;100.00;99094.88;5273722;28;20625;-78
2024/01/03 05:10:35;;;;;;;16.00;2.30;;;;;;;10.57;100.00;99095.28;5246474;28;20028;-78
2024/01/03 05:13:06;;;;;;;14.40;2.35;;;;;;;10.66;100.00;99071.75;5275544;28;20059;-78
2024/01/03 05:15:36;;;;;;;12.05;2.38;;;;;;;10.67;100.00;99068.88;5274903;28;20024;-79
2024/01/03 05:18:07;;;;;;;20.38;2.72;;;;;;;10.68;100.00;99062.47;5278732;28;20019;-77
2024/01/03 05:20:37;;;;;;;14.75;3.47;;;;;;;10.69;100.00;99064.09;5273233;28;20027;-77
2024/01/03 05:23:08;;;;;;;16.60;2.55;;;;;;;10.70;100.00;99078.38;5277141;28;20028;-77
2024/01/03 05:25:39;;;;;;;21.70;2.35;;;;;;;10.69;100.00;99104.34;5275618;28;20028;-77
2024/01/03 05:28:10;;;;;;;13.38;2.10;;;;;;;10.57;100.00;99088.06;5278133;27;20032;-78
2024/01/03 05:30:40;;;;;;;21.77;2.75;;;;;;;10.45;100.00;99073.66;5277677;28;20511;-77
2024/01/03 05:33:12;;;;;;;19.25;2.63;;;;;;;10.59;100.00;99077.97;5274106;28;20036;-77
2024/01/03 05:35:42;;;;;;;33.05;4.78;;;;;;;10.65;100.00;99070.94;5273982;28;20118;-77
2024/01/03 05:38:13;;;;;;;21.73;3.30;;;;;;;10.68;100.00;99061.63;5275483;28;20031;-77
2024/01/03 05:40:43;;;;;;;22.30;3.20;;;;;;;10.73;100.00;99051.09;5277893;28;20019;-77
2024/01/03 05:43:14;;;;;;;24.40;3.53;;;;;;;10.79;100.00;99047.56;5268573;28;20464;-77
2024/01/03 05:45:45;;;;;;;36.15;4.40;;;;;;;10.84;100.00;99053.13;5277247;28;20019;-77
2024/01/03 05:48:15;;;;;;;29.13;3.38;;;;;;;10.91;100.00;99042.41;5273382;27;20032;-77
2024/01/03 05:50:45;;;;;;;23.52;3.45;;;;;;;10.87;100.00;99053.53;5276157;28;20570;-77
2024/01/03 05:53:16;;;;;;;18.27;3.45;;;;;;;10.84;100.00;99039.72;5272768;28;20016;-77
2024/01/03 05:55:46;;;;;;;26.48;4.13;;;;;;;10.83;100.00;99064.91;5274110;28;20485;-78
2024/01/03 05:58:17;;;;;;;24.67;3.25;;;;;;;10.94;100.00;99084.88;5279809;28;20041;-78
2024/01/03 06:00:48;;;;;;;25.40;3.75;;;;;;;11.00;100.00;99097.47;5271843;28;20031;-78
2024/01/03 06:03:18;;;;;;;30.98;5.20;;;;;;;10.85;100.00;99092.34;5280237;28;20023;-78
2024/01/03 06:05:49;;;;;;;18.33;2.13;;;;;;;10.70;100.00;99094.47;5251373;28;20028;-78
2024/01/03 06:08:19;;;;;;;24.05;2.53;;;;;;;10.57;100.00;99109.53;5270143;28;20028;-77
2024/01/03 06:10:50;;;;;;;17.17;2.78;;;;;;;10.53;100.00;99120.88;5269933;28;20024;-77
2024/01/03 06:13:22;;;;;;;18.65;3.33;;;;;;;10.49;100.00;99135.72;5275651;27;20085;-77
2024/01/03 06:15:52;;;;;;;8.10;1.80;;;;;;;10.45;100.00;99139.88;5273800;28;20028;-77
2024/01/03 06:18:23;;;;;;;12.23;2.13;;;;;;;10.29;100.00;99133.88;5278686;28;20031;-77
2024/01/03 06:20:53;;;;;;;12.23;0.95;;;;;;;10.11;100.00;99142.50;5267653;28;20048;-77
2024/01/03 06:23:24;;;;;;;5.25;0.82;;;;;;;10.08;100.00;99132.16;5274571;28;20396;-77
2024/01/03 06:25:54;;;;;;;6.15;0.85;;;;;;;10.02;100.00;99129.50;5276633;28;20129;-77
2024/01/03 06:28:25;;;;;;;6.93;0.70;;;;;;;9.97;100.00;99131.97;5273628;28;20042;-78
2024/01/03 06:30:55;;;;;;;5.68;0.82;;;;;;;9.99;100.00;99145.97;5272211;28;20027;-77
2024/01/03 06:33:26;;;;;;;6.43;0.82;;;;;;;9.87;100.00;99124.31;5274713;28;20123;-77
2024/01/03 06:35:58;;;;;;;12.32;1.40;;;;;;;9.84;100.00;99136.28;5266786;28;20024;-77
2024/01/03 06:38:29;;;;;;;3.88;0.57;;;;;;;9.85;100.00;99139.78;5273122;28;20035;-77
2024/01/03 06:40:59;;;;;;;4.18;0.80;;;;;;;9.92;100.00;99135.25;5270150;28;20020;-77
2024/01/03 06:43:30;;;;;;;4.95;0.82;;;;;;;9.92;100.00;99131.75;5274125;28;20035;-77
2024/01/03 06:46:00;;;;;;;7.43;1.55;;;;;;;9.97;100.00;99138.13;5271173;28;20499;-77
2024/01/03 06:48:31;;;;;;;15.15;1.10;;;;;;;9.99;100.00;99143.28;5273348;28;20028;-77
2024/01/03 06:51:03;;;;;;;9.77;1.80;;;;;;;10.03;100.00;99153.38;5261726;28;20040;-77
2024/01/03 06:53:34;;;;;;;6.97;1.13;;;;;;;10.05;100.00;99151.34;5273943;28;20018;-77
2024/01/03 06:56:04;;;;;;;10.05;1.40;;;;;;;10.08;100.00;99150.09;5267280;28;20024;-77
2024/01/03 06:58:35;;;;;;;11.85;1.40;;;;;;;10.12;100.00;99154.84;5266491;28;20499;-77
2024/01/03 07:01:06;;;;;;;9.60;2.83;;;;;;;10.13;100.00;99147.63;5270510;28;20028;-77
2024/01/03 07:03:36;;;;;;;17.27;1.95;;;;;;;10.13;100.00;99155.66;5274562;28;20033;-77
2024/01/03 07:06:06;;;;;;;16.65;1.95;;;;;;;10.25;100.00;99156.75;5271211;28;20019;-77
2024/01/03 07:08:37;;;;;;;9.00;2.10;;;;;;;10.17;100.00;99148.06;5268642;28;20526;-77
2024/01/03 07:11:09;;;;;;;12.05;1.80;;;;;;;10.33;100.00;99153.88;5272198;28;20027;-77
2024/01/03 07:13:40;;;;;;;13.60;1.88;;;;;;;10.31;100.00;99155.13;5271768;28;20111;-77
2024/01/03 07:16:11;;;;;;;16.67;1.63;;;;;;;10.25;100.00;99162.13;5272427;28;20016;-77
2024/01/03 07:18:42;;;;;;;10.38;1.90;;;;;;;10.34;100.00;99170.75;5270230;28;20016;-77
2024/01/03 07:21:12;;;;;;;13.30;2.20;;;;;;;10.34;100.00;99168.94;5254006;28;20115;-76
2024/01/03 07:23:43;;;;;;;10.60;1.48;;;;;;;10.41;100.00;99166.25;5269112;28;20057;-78
2024/01/03 07:26:13;;;;;;;12.40;1.80;;;;;;;10.44;100.00;99170.34;5269673;28;20091;-77
2024/01/03 07:28:44;;;;;;;12.48;1.65;;;;;;;10.47;100.00;99169.97;5273019;28;20068;-77
2024/01/03 07:31:14;;;;;;;13.23;1.75;;;;;;;10.38;100.00;99167.47;5273538;28;20072;-77
2024/01/03 07:33:45;;;;;;;17.33;2.60;;;;;;;10.46;100.00;99171.00;5265658;28;20380;-77
2024/01/03 07:36:15;;;;;;;32.08;2.85;;;;;;;10.41;100.00;99171.63;5271354;28;20027;-77
2024/01/03 07:38:46;;;;;;;22.23;2.13;;;;;;;10.44;100.00;99170.34;5275481;28;20237;-77
2024/01/03 07:41:18;;;;;;;20.88;3.25;;;;;;;10.43;100.00;99182.13;5273974;28;20020;-77
2024/01/03 07:43:49;;;;;;;12.90;2.10;;;;;;;10.53;100.00;99179.84;5275682;27;20425;-77
2024/01/03 07:46:19;;;;;;;20.25;2.70;;;;;;;10.57;100.00;99173.88;5273698;28;20063;-77
2024/01/03 07:48:50;;;;;;;10.30;1.60;;;;;;;10.49;100.00;99181.28;5270198;28;20032;-78
2024/01/03 07:51:20;;;;;;;508.88;62.78;;;;;;;10.53;100.00;99182.53;5257105;28;20035;-77
2024/01/03 07:53:51;;;;;;;31.30;3.22;;;;;;;10.60;100.00;99189.56;5277601;28;20081;-77
2024/01/03 07:56:21;;;;;;;23.90;2.67;;;;;;;10.58;100.00;99194.28;5274532;28;20461;-77
2024/01/03 07:58:52;;;;;;;12.93;2.30;;;;;;;10.63;100.00;99191.81;5274188;28;20084;-77
2024/01/03 08:01:22;;;;;;;19.65;2.95;;;;;;;10.59;100.00;99201.31;5274032;28;20028;-76
2024/01/03 08:03:54;;;;;;;17.75;2.33;;;;;;;10.63;100.00;99202.53;5270708;28;20530;-77
2024/01/03 08:06:24;;;;;;;18.33;2.92;;;;;;;10.68;100.00;99204.59;5279823;28;20030;-77
2024/01/03 08:08:55;;;;;;;22.90;4.95;;;;;;;10.72;100.00;99205.03;5273440;28;20366;-77
2024/01/03 08:11:26;;;;;;;32.40;6.57;;;;;;;10.75;100.00;99188.53;5277202;28;20299;-77
2024/01/03 08:13:57;;;;;;;27.17;8.75;;;;;;;10.73;100.00;99201.31;5269794;28;20024;-76
2024/01/03 08:16:27;;;;;;;32.47;7.63;;;;;;;10.87;100.00;99211.81;5278832;28;20393;-76
2024/01/03 08:18:57;;;;;;;20.95;3.70;;;;;;;10.87;100.00;99213.69;5274442;28;20019;-77
2024/01/03 08:21:28;;;;;;;22.27;6.13;;;;;;;10.77;100.00;99224.00;5272365;28;20031;-76
2024/01/03 08:23:59;;;;;;;22.25;3.50;;;;;;;10.83;100.00;99221.31;5276769;28;20389;-77
2024/01/03 08:26:31;;;;;;;24.77;3.60;;;;;;;10.86;100.00;99222.75;5274688;28;20034;-77
2024/01/03 08:29:01;;;;;;;24.60;5.80;;;;;;;10.81;100.00;99220.69;5268501;28;20024;-77
2024/01/03 08:31:33;;;;;;;23.23;3.88;;;;;;;10.74;100.00;99219.88;5275609;28;20026;-77
2024/01/03 08:34:04;;;;;;;34.28;3.25;;;;;;;10.81;100.00;99228.75;5273060;28;20393;-77
2024/01/03 08:36:40;;;;;;;21.17;2.95;;;;;;;10.80;100.00;99228.97;5275972;28;20019;-77
2024/01/03 08:39:11;;;;;;;25.60;8.32;;;;;;;10.83;100.00;99239.25;5274823;28;20035;-76
2024/01/03 08:41:41;;;;;;;17.55;3.75;;;;;;;10.81;100.00;99225.25;5275660;28;20384;-77
2024/01/03 08:44:12;;;;;;;19.85;3.42;;;;;;;10.68;100.00;99226.06;5260065;28;20058;-77
2024/01/03 08:46:43;;;;;;;19.35;4.35;;;;;;;10.79;100.00;99246.06;5269048;28;20070;-77
2024/01/03 08:49:14;;;;;;;32.70;10.73;;;;;;;10.78;100.00;99249.78;5271208;28;20056;-76
2024/01/03 08:51:46;;;;;;;24.15;3.75;;;;;;;10.76;100.00;99254.53;5269385;28;20023;-77
2024/01/03 08:54:17;;;;;;;21.40;3.83;;;;;;;10.79;100.00;99248.75;5269708;28;20066;-77
2024/01/03 08:56:50;;;;;;;35.17;4.32;;;;;;;10.67;100.00;99245.88;5272347;28;20016;-77
2024/01/03 08:59:20;;;;;;;30.75;3.50;;;;;;;10.74;100.00;99249.38;5274164;28;20394;-77
2024/01/03 09:01:52;;;;;;;27.67;3.90;;;;;;;10.78;100.00;99255.16;5260951;28;20038;-77
2024/01/03 09:04:23;;;;;;;30.10;4.22;;;;;;;10.78;100.00;99264.03;5264350;28;20024;-76
2024/01/03 09:06:53;;;;;;;19.23;3.55;;;;;;;10.70;100.00;99266.09;5271191;28;20039;-76
2024/01/03 09:09:24;;;;;;;23.35;4.53;;;;;;;10.75;100.00;99253.72;5261499;28;20027;-77
2024/01/03 09:11:55;;;;;;;23.02;4.20;;;;;;;10.87;100.00;99254.75;5267439;28;20401;-77
2024/01/03 09:14:25;;;;;;;34.97;4.75;;;;;;;10.83;100.00;99266.09;5273404;28;20059;-77
2024/01/03 09:16:56;;;;;;;33.97;4.32;;;;;;;10.87;100.00;99257.44;5275931;28;20024;-77
2024/01/03 09:19:26;;;;;;;39.58;4.38;;;;;;;10.99;100.00;99264.84;5279191;28;20027;-76
2024/01/03 09:21:59;;;;;;;29.10;4.75;;;;;;;10.91;100.00;99259.72;5265647;28;20451;-77
2024/01/03 09:24:30;;;;;;;30.95;4.40;;;;;;;11.03;100.00;99272.28;5276471;28;20028;-76
2024/01/03 09:27:00;;;;;;;27.45;4.45;;;;;;;10.99;100.00;99259.47;5272624;28;20050;-77
2024/01/03 09:29:31;;;;;;;28.67;3.97;;;;;;;11.01;100.00;99249.38;5276780;28;20061;-77
2024/01/03 09:32:02;;;;;;;26.48;3.88;;;;;;;11.07;100.00;99260.09;5270011;28;20431;-77
2024/01/03 09:34:38;;;;;;;24.42;3.88;;;;;;;11.14;100.00;99252.88;5273460;28;20031;-77
2024/01/03 09:37:09;;;;;;;28.95;4.05;;;;;;;11.19;100.00;99260.28;5275203;28;20024;-77
2024/01/03 09:39:40;;;;;;;22.55;4.80;;;;;;;11.20;100.00;99275.38;5272917;28;20019;-76
2024/01/03 09:42:12;;;;;;;23.60;3.30;;;;;;;11.19;100.00;99287.13;5272935;28;20034;-76
2024/01/03 09:44:43;;;;;;;22.65;3.97;;;;;;;11.18;100.00;99279.28;5273515;27;20118;-77
2024/01/03 09:47:14;;;;;;;31.95;3.95;;;;;;;11.16;100.00;99282.19;5270621;28;20028;-77
2024/01/03 09:49:45;;;;;;;26.70;3.55;;;;;;;11.32;100.00;99278.25;5270695;28;20027;-77
2024/01/03 09:52:17;;;;;;;23.85;3.78;;;;;;;11.34;100.00;99274.28;5276889;28;20521;-76
2024/01/03 09:54:47;;;;;;;16.20;2.80;;;;;;;11.40;100.00;99280.72;5272301;28;20039;-77
2024/01/03 09:57:19;;;;;;;19.27;3.55;;;;;;;11.42;100.00;99278.63;5268552;28;20447;-76
2024/01/03 09:59:49;;;;;;;24.90;3.60;;;;;;;11.33;100.00;99283.41;5272955;28;20091;-76
2024/01/03 10:02:26;;;;;;;32.08;2.90;;;;;;;11.57;100.00;99284.59;5270730;28;20107;-77
2024/01/03 10:04:57;;;;;;;16.23;2.85;;;;;;;11.61;100.00;99283.13;5269398;28;20102;-77
2024/01/03 10:07:32;;;;;;;13.27;2.88;;;;;;;11.62;100.00;99294.69;5273092;28;20146;-75
2024/01/03 10:10:03;;;;;;;32.55;4.15;;;;;;;11.54;100.00;99293.06;5270242;28;20020;-76
2024/01/03 10:12:34;;;;;;;23.55;3.88;;;;;;;11.43;100.00;99288.34;5266403;28;20028;-77
2024/01/03 10:15:15;;;;;;;15.48;2.75;;;;;;;11.30;100.00;99288.38;5270369;28;20214;-76
2024/01/03 10:17:46;;;;;;;21.48;2.92;;;;;;;11.26;100.00;99281.78;5271521;28;20050;-76
2024/01/03 10:20:29;;;;;;;16.92;3.30;;;;;;;11.11;100.00;99285.50;5271946;28;20016;-77
2024/01/03 10:23:05;;;;;;;19.65;2.45;;;;;;;10.90;100.00;99293.75;5268000;28;20039;-78
2024/01/03 10:25:37;;;;;;;17.52;2.83;;;;;;;10.86;100.00;99311.28;5266965;28;20133;-77
2024/01/03 10:28:10;;;;;;;21.92;2.80;;;;;;;10.95;100.00;99311.94;5271802;28;20028;-77
2024/01/03 10:30:41;;;;;;;20.77;3.45;;;;;;;10.86;100.00;99322.03;5271386;28;20038;-77
2024/01/03 10:33:13;;;;;;;17.05;3.42;;;;;;;10.70;100.00;99323.25;5268748;28;20028;-77
2024/01/03 10:35:44;;;;;;;14.32;3.13;;;;;;;10.76;100.00;99294.78;5267821;28;20024;-77
2024/01/03 10:38:17;;;;;;;22.63;3.40;;;;;;;10.70;100.00;99292.94;5271773;28;20547;-77
2024/01/03 10:40:48;;;;;;;15.63;2.50;;;;;;;10.70;100.00;99276.84;5268712;28;20508;-77
2024/01/03 10:43:18;;;;;;;15.35;2.03;;;;;;;10.66;100.00;99272.91;5269759;28;20023;-77
2024/01/03 10:45:52;;;;;;;20.23;3.33;;;;;;;10.73;100.00;99281.78;5269857;28;20397;-77
2024/01/03 10:48:23;;;;;;;28.63;3.20;;;;;;;10.78;100.00;99280.13;5268029;28;20118;-77
2024/01/03 10:50:59;;;;;;;21.95;3.05;;;;;;;10.91;100.00;99270.44;5264835;28;20497;-77
2024/01/03 10:53:35;;;;;;;19.13;3.30;;;;;;;10.96;100.00;99260.72;5271646;28;20068;-77
2024/01/03 10:56:09;;;;;;;18.60;3.20;;;;;;;11.18;100.00;99269.38;5268036;28;20035;-77
2024/01/03 10:58:39;;;;;;;25.70;4.28;;;;;;;11.20;100.00;99266.50;5272304;28;20503;-77
2024/01/03 11:01:18;;;;;;;18.15;3.22;;;;;;;11.40;100.00;99272.66;5269495;28;20050;-77
2024/01/03 11:03:56;;;;;;;32.67;5.15;;;;;;;11.48;100.00;99280.47;5270255;28;20020;-76
2024/01/03 11:06:41;;;;;;;32.92;4.13;;;;;;;11.51;100.00;99263.94;5273840;28;20065;-77
2024/01/03 11:09:13;;;;;;;25.17;3.10;;;;;;;11.52;100.00;99260.22;5265549;28;20103;-76
2024/01/03 11:11:43;;;;;;;23.52;3.10;;;;;;;11.59;100.00;99266.38;5266485;28;20024;-77
2024/01/03 11:14:21;;;;;;;26.58;2.90;;;;;;;11.41;100.00;99268.94;5269635;28;20038;-77
2024/01/03 11:16:52;;;;;;;21.48;3.38;;;;;;;11.53;100.00;99267.25;5271406;28;20023;-77
2024/01/03 11:19:28;;;;;;;16.25;3.05;;;;;;;11.40;100.00;99268.13;5268926;28;20531;-77
2024/01/03 11:22:01;;;;;;;23.40;3.53;;;;;;;11.55;100.00;99253.63;5265979;28;20080;-77
2024/01/03 11:24:31;;;;;;;19.08;3.05;;;;;;;11.62;100.00;99254.41;5274029;28;20031;-78
2024/01/03 11:27:04;;;;;;;18.50;3.25;;;;;;;11.50;100.00;99251.56;5265585;28;20922;-78
2024/01/03 11:29:35;;;;;;;24.98;3.60;;;;;;;11.70;100.00;99253.34;5271404;27;20057;-77
2024/01/03 11:32:07;;;;;;;20.55;3.75;;;;;;;11.79;100.00;99257.44;5268492;28;20028;-77
2024/01/03 11:34:39;;;;;;;18.60;3.35;;;;;;;11.89;100.00;99244.41;5271292;27;20093;-77
2024/01/03 11:37:10;;;;;;;23.58;3.33;;;;;;;11.99;100.00;99250.16;5272259;28;20182;-77
2024/01/03 11:39:43;;;;;;;19.15;3.00;;;;;;;11.86;100.00;99252.91;5268093;28;20564;-77